Terminal Aerodrome Forecast
Issued by NWS

Home | Current Version | Previous Version | Text Only | Print | Product List | Glossary On
Versions: 1 2 3 4 5 6 7 8 9 10 11 12 13 14 15 16 17 18 19 20 21 22 23 24 25 26 27
289
FTUS41 KPHI 101740
TAFPNE
TAF
KPNE 101740Z 1018/1118 30016G25KT P6SM BKN045
     FM102300 28010KT P6SM SCT060
      TEMPO 1104/1107 3SM -SHSN BKN030
     FM110900 30013KT P6SM BKN100
     FM111400 29016G27KT P6SM BKN050=

USA.gov is the U.S. government's official web portal to all federal, state and local government web resources and services.